sensor_id;sensor_type;location;lat;lon;timestamp;P1;durP1;ratioP1;P2;durP2;ratioP2
16407;SDS011;8313;49.894;8.084;2023-02-15T00:01:48;24.77;;;11.50;;
16407;SDS011;8313;49.894;8.084;2023-02-15T00:04:15;31.00;;;13.17;;
16407;SDS011;8313;49.894;8.084;2023-02-15T00:06:42;19.60;;;10.50;;
16407;SDS011;8313;49.894;8.084;2023-02-15T00:09:09;23.97;;;11.20;;
16407;SDS011;8313;49.894;8.084;2023-02-15T00:11:36;24.13;;;11.50;;
16407;SDS011;8313;49.894;8.084;2023-02-15T00:14:25;22.37;;;11.17;;
16407;SDS011;8313;49.894;8.084;2023-02-15T00:16:51;29.57;;;12.17;;
16407;SDS011;8313;49.894;8.084;2023-02-15T00:19:19;32.10;;;12.77;;
16407;SDS011;8313;49.894;8.084;2023-02-15T00:21:45;28.57;;;12.73;;
16407;SDS011;8313;49.894;8.084;2023-02-15T00:24:13;19.87;;;10.57;;
16407;SDS011;8313;49.894;8.084;2023-02-15T00:26:40;33.07;;;12.57;;
16407;SDS011;8313;49.894;8.084;2023-02-15T00:29:07;24.60;;;11.57;;
16407;SDS011;8313;49.894;8.084;2023-02-15T00:31:34;26.90;;;11.73;;
16407;SDS011;8313;49.894;8.084;2023-02-15T00:34:11;30.40;;;12.10;;
16407;SDS011;8313;49.894;8.084;2023-02-15T00:36:40;31.07;;;13.47;;
16407;SDS011;8313;49.894;8.084;2023-02-15T00:39:05;23.80;;;11.13;;
16407;SDS011;8313;49.894;8.084;2023-02-15T00:41:31;29.87;;;13.63;;
16407;SDS011;8313;49.894;8.084;2023-02-15T00:43:58;24.90;;;11.70;;
16407;SDS011;8313;49.894;8.084;2023-02-15T00:46:23;24.77;;;11.60;;
16407;SDS011;8313;49.894;8.084;2023-02-15T00:48:49;34.47;;;14.60;;
16407;SDS011;8313;49.894;8.084;2023-02-15T00:51:15;29.93;;;13.33;;
16407;SDS011;8313;49.894;8.084;2023-02-15T00:53:42;22.90;;;10.50;;
16407;SDS011;8313;49.894;8.084;2023-02-15T00:56:09;31.80;;;12.03;;
16407;SDS011;8313;49.894;8.084;2023-02-15T00:58:35;25.50;;;12.10;;
16407;SDS011;8313;49.894;8.084;2023-02-15T01:01:05;22.97;;;11.20;;
16407;SDS011;8313;49.894;8.084;2023-02-15T01:03:32;24.00;;;12.90;;
16407;SDS011;8313;49.894;8.084;2023-02-15T01:05:58;26.83;;;12.20;;
16407;SDS011;8313;49.894;8.084;2023-02-15T01:08:25;26.30;;;12.07;;
16407;SDS011;8313;49.894;8.084;2023-02-15T01:10:51;23.37;;;12.17;;
16407;SDS011;8313;49.894;8.084;2023-02-15T01:13:18;30.70;;;12.20;;
16407;SDS011;8313;49.894;8.084;2023-02-15T01:15:44;33.70;;;13.53;;
16407;SDS011;8313;49.894;8.084;2023-02-15T01:18:10;26.80;;;11.70;;
16407;SDS011;8313;49.894;8.084;2023-02-15T01:20:37;24.30;;;13.20;;
16407;SDS011;8313;49.894;8.084;2023-02-15T01:23:06;28.77;;;11.87;;
16407;SDS011;8313;49.894;8.084;2023-02-15T01:25:32;28.37;;;11.87;;
16407;SDS011;8313;49.894;8.084;2023-02-15T01:28:00;26.27;;;12.50;;
16407;SDS011;8313;49.894;8.084;2023-02-15T01:30:26;22.87;;;11.90;;
16407;SDS011;8313;49.894;8.084;2023-02-15T01:32:52;26.53;;;12.63;;
16407;SDS011;8313;49.894;8.084;2023-02-15T01:35:17;22.17;;;10.77;;
16407;SDS011;8313;49.894;8.084;2023-02-15T01:37:43;23.80;;;10.30;;
16407;SDS011;8313;49.894;8.084;2023-02-15T01:40:11;29.63;;;10.93;;
16407;SDS011;8313;49.894;8.084;2023-02-15T01:42:39;24.00;;;11.50;;
16407;SDS011;8313;49.894;8.084;2023-02-15T01:45:16;22.20;;;12.83;;
16407;SDS011;8313;49.894;8.084;2023-02-15T01:47:54;26.13;;;10.73;;
16407;SDS011;8313;49.894;8.084;2023-02-15T01:50:29;26.47;;;11.80;;
16407;SDS011;8313;49.894;8.084;2023-02-15T01:53:13;28.70;;;11.83;;
16407;SDS011;8313;49.894;8.084;2023-02-15T01:58:14;26.53;;;12.83;;
16407;SDS011;8313;49.894;8.084;2023-02-15T02:00:40;23.57;;;12.57;;
16407;SDS011;8313;49.894;8.084;2023-02-15T02:03:06;25.23;;;10.70;;
16407;SDS011;8313;49.894;8.084;2023-02-15T02:05:32;21.43;;;10.50;;
16407;SDS011;8313;49.894;8.084;2023-02-15T02:07:58;25.50;;;11.83;;
16407;SDS011;8313;49.894;8.084;2023-02-15T02:10:26;23.43;;;9.90;;
16407;SDS011;8313;49.894;8.084;2023-02-15T02:12:57;23.20;;;10.30;;
16407;SDS011;8313;49.894;8.084;2023-02-15T02:18:20;24.80;;;11.80;;
16407;SDS011;8313;49.894;8.084;2023-02-15T02:23:49;20.97;;;10.13;;
16407;SDS011;8313;49.894;8.084;2023-02-15T02:29:26;22.67;;;9.67;;
16407;SDS011;8313;49.894;8.084;2023-02-15T02:34:59;21.30;;;10.50;;
16407;SDS011;8313;49.894;8.084;2023-02-15T02:37:46;30.50;;;11.53;;
16407;SDS011;8313;49.894;8.084;2023-02-15T02:45:53;22.63;;;10.17;;
16407;SDS011;8313;49.894;8.084;2023-02-15T02:48:28;20.43;;;9.50;;
16407;SDS011;8313;49.894;8.084;2023-02-15T02:50:57;23.10;;;9.10;;
16407;SDS011;8313;49.894;8.084;2023-02-15T02:53:22;21.27;;;10.97;;
16407;SDS011;8313;49.894;8.084;2023-02-15T03:01:33;16.43;;;9.00;;
16407;SDS011;8313;49.894;8.084;2023-02-15T03:04:11;16.10;;;8.90;;
16407;SDS011;8313;49.894;8.084;2023-02-15T03:06:50;21.87;;;9.70;;
16407;SDS011;8313;49.894;8.084;2023-02-15T03:09:30;25.63;;;10.67;;
16407;SDS011;8313;49.894;8.084;2023-02-15T03:12:06;21.20;;;9.03;;
16407;SDS011;8313;49.894;8.084;2023-02-15T03:14:44;18.20;;;8.70;;
16407;SDS011;8313;49.894;8.084;2023-02-15T03:17:16;21.97;;;9.83;;
16407;SDS011;8313;49.894;8.084;2023-02-15T03:19:45;18.50;;;9.00;;
16407;SDS011;8313;49.894;8.084;2023-02-15T03:22:18;19.70;;;9.17;;
16407;SDS011;8313;49.894;8.084;2023-02-15T03:24:59;21.20;;;10.20;;
16407;SDS011;8313;49.894;8.084;2023-02-15T03:27:54;17.50;;;8.80;;
16407;SDS011;8313;49.894;8.084;2023-02-15T03:30:24;20.97;;;8.57;;
16407;SDS011;8313;49.894;8.084;2023-02-15T03:32:53;18.73;;;10.10;;
16407;SDS011;8313;49.894;8.084;2023-02-15T03:35:23;18.57;;;9.40;;
16407;SDS011;8313;49.894;8.084;2023-02-15T03:37:57;15.07;;;8.83;;
16407;SDS011;8313;49.894;8.084;2023-02-15T03:40:26;20.90;;;7.60;;
16407;SDS011;8313;49.894;8.084;2023-02-15T03:43:25;16.50;;;9.27;;
16407;SDS011;8313;49.894;8.084;2023-02-15T03:45:56;21.87;;;10.00;;
16407;SDS011;8313;49.894;8.084;2023-02-15T03:48:31;16.27;;;8.50;;
16407;SDS011;8313;49.894;8.084;2023-02-15T03:51:07;19.07;;;8.60;;
16407;SDS011;8313;49.894;8.084;2023-02-15T03:53:56;19.30;;;8.70;;
16407;SDS011;8313;49.894;8.084;2023-02-15T03:56:24;17.80;;;8.37;;
16407;SDS011;8313;49.894;8.084;2023-02-15T03:58:50;20.37;;;8.03;;
16407;SDS011;8313;49.894;8.084;2023-02-15T04:01:36;28.30;;;10.57;;
16407;SDS011;8313;49.894;8.084;2023-02-15T04:04:11;19.80;;;9.27;;
16407;SDS011;8313;49.894;8.084;2023-02-15T04:06:43;15.20;;;8.00;;
16407;SDS011;8313;49.894;8.084;2023-02-15T04:09:09;16.90;;;8.30;;
16407;SDS011;8313;49.894;8.084;2023-02-15T04:11:53;22.67;;;8.63;;
16407;SDS011;8313;49.894;8.084;2023-02-15T04:14:18;17.33;;;9.27;;
16407;SDS011;8313;49.894;8.084;2023-02-15T04:17:05;22.87;;;8.80;;
16407;SDS011;8313;49.894;8.084;2023-02-15T04:19:32;21.13;;;9.53;;
16407;SDS011;8313;49.894;8.084;2023-02-15T04:22:16;18.70;;;8.17;;
16407;SDS011;8313;49.894;8.084;2023-02-15T04:25:00;19.40;;;7.43;;
16407;SDS011;8313;49.894;8.084;2023-02-15T04:27:36;17.13;;;8.43;;
16407;SDS011;8313;49.894;8.084;2023-02-15T04:30:02;17.57;;;8.77;;
16407;SDS011;8313;49.894;8.084;2023-02-15T04:32:29;18.20;;;7.67;;
16407;SDS011;8313;49.894;8.084;2023-02-15T04:34:55;18.63;;;7.40;;
16407;SDS011;8313;49.894;8.084;2023-02-15T04:37:20;16.10;;;8.43;;
16407;SDS011;8313;49.894;8.084;2023-02-15T04:39:46;16.80;;;7.80;;
16407;SDS011;8313;49.894;8.084;2023-02-15T04:42:12;19.13;;;9.70;;
16407;SDS011;8313;49.894;8.084;2023-02-15T04:44:38;22.60;;;8.77;;
16407;SDS011;8313;49.894;8.084;2023-02-15T04:47:04;15.93;;;8.80;;
16407;SDS011;8313;49.894;8.084;2023-02-15T04:49:29;18.70;;;8.20;;
16407;SDS011;8313;49.894;8.084;2023-02-15T04:51:55;21.80;;;9.73;;
16407;SDS011;8313;49.894;8.084;2023-02-15T04:54:21;20.30;;;9.13;;
16407;SDS011;8313;49.894;8.084;2023-02-15T04:56:46;17.67;;;8.37;;
16407;SDS011;8313;49.894;8.084;2023-02-15T04:59:12;22.77;;;9.77;;
16407;SDS011;8313;49.894;8.084;2023-02-15T05:01:38;16.57;;;7.17;;
16407;SDS011;8313;49.894;8.084;2023-02-15T05:04:04;19.97;;;8.30;;
16407;SDS011;8313;49.894;8.084;2023-02-15T05:06:30;19.87;;;8.47;;
16407;SDS011;8313;49.894;8.084;2023-02-15T05:08:55;16.13;;;8.63;;
16407;SDS011;8313;49.894;8.084;2023-02-15T05:11:23;15.27;;;7.10;;
16407;SDS011;8313;49.894;8.084;2023-02-15T05:13:50;17.20;;;6.97;;
16407;SDS011;8313;49.894;8.084;2023-02-15T05:16:16;13.83;;;8.03;;
16407;SDS011;8313;49.894;8.084;2023-02-15T05:18:42;17.40;;;8.40;;
16407;SDS011;8313;49.894;8.084;2023-02-15T05:21:07;12.63;;;6.50;;
16407;SDS011;8313;49.894;8.084;2023-02-15T05:23:33;16.00;;;8.20;;
16407;SDS011;8313;49.894;8.084;2023-02-15T05:25:59;18.20;;;7.40;;
16407;SDS011;8313;49.894;8.084;2023-02-15T05:28:57;16.70;;;6.97;;
16407;SDS011;8313;49.894;8.084;2023-02-15T05:31:23;12.20;;;6.67;;
16407;SDS011;8313;49.894;8.084;2023-02-15T05:33:48;16.53;;;6.83;;
16407;SDS011;8313;49.894;8.084;2023-02-15T05:36:14;20.33;;;8.20;;
16407;SDS011;8313;49.894;8.084;2023-02-15T05:38:40;13.73;;;7.00;;
16407;SDS011;8313;49.894;8.084;2023-02-15T05:41:06;13.77;;;7.50;;
16407;SDS011;8313;49.894;8.084;2023-02-15T05:43:32;17.90;;;7.47;;
16407;SDS011;8313;49.894;8.084;2023-02-15T05:45:58;18.63;;;7.70;;
16407;SDS011;8313;49.894;8.084;2023-02-15T05:48:24;15.27;;;7.13;;
16407;SDS011;8313;49.894;8.084;2023-02-15T05:51:02;15.73;;;6.80;;
16407;SDS011;8313;49.894;8.084;2023-02-15T05:53:30;15.43;;;7.13;;
16407;SDS011;8313;49.894;8.084;2023-02-15T05:55:57;12.43;;;6.77;;
16407;SDS011;8313;49.894;8.084;2023-02-15T05:58:28;15.70;;;6.57;;
16407;SDS011;8313;49.894;8.084;2023-02-15T06:00:55;13.30;;;6.57;;
16407;SDS011;8313;49.894;8.084;2023-02-15T06:03:21;16.57;;;7.50;;
16407;SDS011;8313;49.894;8.084;2023-02-15T06:05:48;20.17;;;6.97;;
16407;SDS011;8313;49.894;8.084;2023-02-15T06:08:14;13.17;;;7.43;;
16407;SDS011;8313;49.894;8.084;2023-02-15T06:10:40;10.73;;;5.80;;
16407;SDS011;8313;49.894;8.084;2023-02-15T06:13:06;10.70;;;6.97;;
16407;SDS011;8313;49.894;8.084;2023-02-15T06:15:32;15.70;;;8.07;;
16407;SDS011;8313;49.894;8.084;2023-02-15T06:17:58;15.20;;;7.47;;
16407;SDS011;8313;49.894;8.084;2023-02-15T06:20:24;15.23;;;7.10;;
16407;SDS011;8313;49.894;8.084;2023-02-15T06:22:49;19.90;;;7.00;;
16407;SDS011;8313;49.894;8.084;2023-02-15T06:25:15;16.80;;;7.50;;
16407;SDS011;8313;49.894;8.084;2023-02-15T06:27:41;16.80;;;7.00;;
16407;SDS011;8313;49.894;8.084;2023-02-15T06:30:08;14.53;;;6.67;;
16407;SDS011;8313;49.894;8.084;2023-02-15T06:32:35;16.07;;;6.77;;
16407;SDS011;8313;49.894;8.084;2023-02-15T06:35:01;15.87;;;7.70;;
16407;SDS011;8313;49.894;8.084;2023-02-15T06:37:28;16.10;;;7.00;;
16407;SDS011;8313;49.894;8.084;2023-02-15T06:39:53;16.73;;;7.40;;
16407;SDS011;8313;49.894;8.084;2023-02-15T06:42:19;15.40;;;7.00;;
16407;SDS011;8313;49.894;8.084;2023-02-15T06:44:45;17.20;;;7.20;;
16407;SDS011;8313;49.894;8.084;2023-02-15T06:47:11;11.73;;;6.50;;
16407;SDS011;8313;49.894;8.084;2023-02-15T06:49:37;11.87;;;6.60;;
16407;SDS011;8313;49.894;8.084;2023-02-15T06:52:03;12.40;;;6.43;;
16407;SDS011;8313;49.894;8.084;2023-02-15T06:54:29;13.47;;;7.30;;
16407;SDS011;8313;49.894;8.084;2023-02-15T06:56:54;14.53;;;6.50;;
16407;SDS011;8313;49.894;8.084;2023-02-15T06:59:20;16.80;;;7.83;;
16407;SDS011;8313;49.894;8.084;2023-02-15T07:01:46;16.57;;;8.47;;
16407;SDS011;8313;49.894;8.084;2023-02-15T07:04:12;13.93;;;7.27;;
16407;SDS011;8313;49.894;8.084;2023-02-15T07:06:37;14.87;;;7.53;;
16407;SDS011;8313;49.894;8.084;2023-02-15T07:09:03;15.37;;;6.30;;
16407;SDS011;8313;49.894;8.084;2023-02-15T07:11:29;19.50;;;8.47;;
16407;SDS011;8313;49.894;8.084;2023-02-15T07:14:13;18.90;;;8.50;;
16407;SDS011;8313;49.894;8.084;2023-02-15T07:16:39;21.87;;;7.33;;
16407;SDS011;8313;49.894;8.084;2023-02-15T07:19:04;13.23;;;6.93;;
16407;SDS011;8313;49.894;8.084;2023-02-15T07:21:30;19.40;;;9.10;;
16407;SDS011;8313;49.894;8.084;2023-02-15T07:23:56;17.17;;;7.13;;
16407;SDS011;8313;49.894;8.084;2023-02-15T07:26:22;16.57;;;6.40;;
16407;SDS011;8313;49.894;8.084;2023-02-15T07:28:48;13.33;;;6.23;;
16407;SDS011;8313;49.894;8.084;2023-02-15T07:31:14;11.60;;;6.20;;
16407;SDS011;8313;49.894;8.084;2023-02-15T07:33:40;15.77;;;6.73;;
16407;SDS011;8313;49.894;8.084;2023-02-15T07:36:06;14.10;;;5.67;;
16407;SDS011;8313;49.894;8.084;2023-02-15T07:38:38;16.20;;;7.87;;
16407;SDS011;8313;49.894;8.084;2023-02-15T07:41:14;13.80;;;7.03;;
16407;SDS011;8313;49.894;8.084;2023-02-15T07:43:41;11.47;;;6.03;;
16407;SDS011;8313;49.894;8.084;2023-02-15T07:46:10;16.53;;;7.27;;
16407;SDS011;8313;49.894;8.084;2023-02-15T07:48:37;13.93;;;7.10;;
16407;SDS011;8313;49.894;8.084;2023-02-15T07:51:04;14.03;;;6.97;;
16407;SDS011;8313;49.894;8.084;2023-02-15T07:53:31;14.93;;;7.50;;
16407;SDS011;8313;49.894;8.084;2023-02-15T07:56:00;17.90;;;6.70;;
16407;SDS011;8313;49.894;8.084;2023-02-15T07:58:27;14.90;;;7.10;;
16407;SDS011;8313;49.894;8.084;2023-02-15T08:01:11;13.70;;;6.23;;
16407;SDS011;8313;49.894;8.084;2023-02-15T08:03:38;15.13;;;6.60;;
16407;SDS011;8313;49.894;8.084;2023-02-15T08:06:03;14.13;;;6.93;;
16407;SDS011;8313;49.894;8.084;2023-02-15T08:08:29;12.87;;;6.30;;
16407;SDS011;8313;49.894;8.084;2023-02-15T08:11:02;15.83;;;5.73;;
16407;SDS011;8313;49.894;8.084;2023-02-15T08:13:47;14.17;;;6.53;;
16407;SDS011;8313;49.894;8.084;2023-02-15T08:18:50;21.37;;;8.37;;
16407;SDS011;8313;49.894;8.084;2023-02-15T08:21:17;17.10;;;7.43;;
16407;SDS011;8313;49.894;8.084;2023-02-15T08:23:43;16.80;;;7.67;;
16407;SDS011;8313;49.894;8.084;2023-02-15T08:26:09;13.20;;;6.70;;
16407;SDS011;8313;49.894;8.084;2023-02-15T08:28:35;15.27;;;7.30;;
16407;SDS011;8313;49.894;8.084;2023-02-15T08:31:06;13.67;;;6.80;;
16407;SDS011;8313;49.894;8.084;2023-02-15T08:33:34;13.67;;;6.63;;
16407;SDS011;8313;49.894;8.084;2023-02-15T08:36:11;12.23;;;6.90;;
16407;SDS011;8313;49.894;8.084;2023-02-15T08:38:38;13.40;;;5.97;;
16407;SDS011;8313;49.894;8.084;2023-02-15T08:41:08;14.80;;;7.20;;
16407;SDS011;8313;49.894;8.084;2023-02-15T08:43:41;9.90;;;5.37;;
16407;SDS011;8313;49.894;8.084;2023-02-15T08:46:08;8.83;;;5.40;;
16407;SDS011;8313;49.894;8.084;2023-02-15T08:48:35;14.87;;;6.20;;
16407;SDS011;8313;49.894;8.084;2023-02-15T08:51:05;13.83;;;6.97;;
16407;SDS011;8313;49.894;8.084;2023-02-15T08:53:43;10.30;;;6.03;;
16407;SDS011;8313;49.894;8.084;2023-02-15T08:56:10;11.90;;;5.60;;
16407;SDS011;8313;49.894;8.084;2023-02-15T08:58:37;13.03;;;6.37;;
16407;SDS011;8313;49.894;8.084;2023-02-15T09:01:10;14.63;;;7.00;;
16407;SDS011;8313;49.894;8.084;2023-02-15T09:03:37;12.23;;;6.37;;
16407;SDS011;8313;49.894;8.084;2023-02-15T09:06:03;15.93;;;7.10;;
16407;SDS011;8313;49.894;8.084;2023-02-15T09:08:29;13.33;;;6.40;;
16407;SDS011;8313;49.894;8.084;2023-02-15T09:11:03;14.00;;;6.83;;
16407;SDS011;8313;49.894;8.084;2023-02-15T09:13:37;15.43;;;6.37;;
16407;SDS011;8313;49.894;8.084;2023-02-15T09:16:05;12.90;;;6.63;;
16407;SDS011;8313;49.894;8.084;2023-02-15T09:18:34;13.40;;;7.10;;
16407;SDS011;8313;49.894;8.084;2023-02-15T09:21:10;16.33;;;7.37;;
16407;SDS011;8313;49.894;8.084;2023-02-15T09:23:39;15.60;;;8.13;;
16407;SDS011;8313;49.894;8.084;2023-02-15T09:26:06;17.33;;;7.47;;
16407;SDS011;8313;49.894;8.084;2023-02-15T09:28:33;16.83;;;8.60;;
16407;SDS011;8313;49.894;8.084;2023-02-15T09:31:13;13.57;;;7.37;;
16407;SDS011;8313;49.894;8.084;2023-02-15T09:33:41;18.60;;;7.40;;
16407;SDS011;8313;49.894;8.084;2023-02-15T09:38:39;15.70;;;7.13;;
16407;SDS011;8313;49.894;8.084;2023-02-15T09:43:56;19.93;;;8.23;;
16407;SDS011;8313;49.894;8.084;2023-02-15T09:51:55;15.97;;;7.23;;
16407;SDS011;8313;49.894;8.084;2023-02-15T09:56:52;12.10;;;6.57;;
16407;SDS011;8313;49.894;8.084;2023-02-15T09:59:37;14.80;;;6.90;;
16407;SDS011;8313;49.894;8.084;2023-02-15T10:10:21;12.70;;;6.40;;
16407;SDS011;8313;49.894;8.084;2023-02-15T10:13:13;11.73;;;5.73;;
16407;SDS011;8313;49.894;8.084;2023-02-15T10:19:01;14.23;;;7.33;;
16407;SDS011;8313;49.894;8.084;2023-02-15T10:22:01;12.70;;;6.77;;
16407;SDS011;8313;49.894;8.084;2023-02-15T10:24:43;11.67;;;6.63;;
16407;SDS011;8313;49.894;8.084;2023-02-15T10:27:37;14.93;;;8.43;;
16407;SDS011;8313;49.894;8.084;2023-02-15T10:39:02;14.03;;;7.60;;
16407;SDS011;8313;49.894;8.084;2023-02-15T10:44:34;16.57;;;7.47;;
16407;SDS011;8313;49.894;8.084;2023-02-15T10:47:25;15.50;;;7.43;;
16407;SDS011;8313;49.894;8.084;2023-02-15T10:50:32;16.60;;;8.03;;
16407;SDS011;8313;49.894;8.084;2023-02-15T10:56:16;12.93;;;6.90;;
16407;SDS011;8313;49.894;8.084;2023-02-15T11:07:06;12.60;;;7.70;;
16407;SDS011;8313;49.894;8.084;2023-02-15T11:09:41;11.67;;;6.13;;
16407;SDS011;8313;49.894;8.084;2023-02-15T11:12:16;10.93;;;6.90;;
16407;SDS011;8313;49.894;8.084;2023-02-15T11:15:01;17.87;;;8.07;;
16407;SDS011;8313;49.894;8.084;2023-02-15T11:17:38;14.37;;;7.90;;
16407;SDS011;8313;49.894;8.084;2023-02-15T11:22:49;18.80;;;10.27;;
16407;SDS011;8313;49.894;8.084;2023-02-15T11:25:21;17.17;;;8.27;;
16407;SDS011;8313;49.894;8.084;2023-02-15T11:27:48;15.17;;;7.80;;
16407;SDS011;8313;49.894;8.084;2023-02-15T11:30:23;15.00;;;7.50;;
16407;SDS011;8313;49.894;8.084;2023-02-15T11:32:52;12.70;;;6.80;;
16407;SDS011;8313;49.894;8.084;2023-02-15T11:35:29;15.00;;;7.00;;
16407;SDS011;8313;49.894;8.084;2023-02-15T11:43:18;16.47;;;7.37;;
16407;SDS011;8313;49.894;8.084;2023-02-15T11:45:51;18.83;;;8.43;;
16407;SDS011;8313;49.894;8.084;2023-02-15T11:48:16;13.90;;;8.10;;
16407;SDS011;8313;49.894;8.084;2023-02-15T11:50:43;18.53;;;8.93;;
16407;SDS011;8313;49.894;8.084;2023-02-15T11:53:17;13.73;;;7.13;;
16407;SDS011;8313;49.894;8.084;2023-02-15T11:55:47;17.07;;;7.57;;
16407;SDS011;8313;49.894;8.084;2023-02-15T12:03:51;17.30;;;10.10;;
16407;SDS011;8313;49.894;8.084;2023-02-15T12:06:22;12.90;;;8.07;;
16407;SDS011;8313;49.894;8.084;2023-02-15T12:09:01;17.23;;;9.50;;
16407;SDS011;8313;49.894;8.084;2023-02-15T12:11:34;14.70;;;8.40;;
16407;SDS011;8313;49.894;8.084;2023-02-15T12:14:05;15.87;;;8.80;;
16407;SDS011;8313;49.894;8.084;2023-02-15T12:21:48;11.47;;;7.33;;
16407;SDS011;8313;49.894;8.084;2023-02-15T12:24:17;15.50;;;7.80;;
16407;SDS011;8313;49.894;8.084;2023-02-15T12:26:55;16.50;;;9.20;;
16407;SDS011;8313;49.894;8.084;2023-02-15T12:29:41;15.47;;;8.80;;
16407;SDS011;8313;49.894;8.084;2023-02-15T12:32:16;19.10;;;9.23;;
16407;SDS011;8313;49.894;8.084;2023-02-15T12:37:55;17.23;;;9.73;;
16407;SDS011;8313;49.894;8.084;2023-02-15T12:40:29;19.20;;;9.10;;
16407;SDS011;8313;49.894;8.084;2023-02-15T12:42:55;14.57;;;8.27;;
16407;SDS011;8313;49.894;8.084;2023-02-15T12:45:24;18.60;;;8.87;;
16407;SDS011;8313;49.894;8.084;2023-02-15T12:48:09;21.80;;;10.47;;
16407;SDS011;8313;49.894;8.084;2023-02-15T12:50:39;17.73;;;11.60;;
16407;SDS011;8313;49.894;8.084;2023-02-15T12:55:37;17.97;;;9.90;;
16407;SDS011;8313;49.894;8.084;2023-02-15T13:00:47;15.47;;;8.63;;
16407;SDS011;8313;49.894;8.084;2023-02-15T13:03:16;15.97;;;8.87;;
16407;SDS011;8313;49.894;8.084;2023-02-15T13:05:44;17.63;;;9.50;;
16407;SDS011;8313;49.894;8.084;2023-02-15T13:08:16;17.30;;;9.53;;
16407;SDS011;8313;49.894;8.084;2023-02-15T13:13:31;19.20;;;10.10;;
16407;SDS011;8313;49.894;8.084;2023-02-15T13:16:08;14.43;;;8.97;;
16407;SDS011;8313;49.894;8.084;2023-02-15T13:21:06;19.07;;;9.53;;
16407;SDS011;8313;49.894;8.084;2023-02-15T13:23:34;24.97;;;13.17;;
16407;SDS011;8313;49.894;8.084;2023-02-15T13:26:02;33.63;;;16.47;;
16407;SDS011;8313;49.894;8.084;2023-02-15T13:29:15;18.50;;;13.67;;
16407;SDS011;8313;49.894;8.084;2023-02-15T13:31:22;20.87;;;12.57;;
16407;SDS011;8313;49.894;8.084;2023-02-15T13:33:54;23.40;;;12.00;;
16407;SDS011;8313;49.894;8.084;2023-02-15T13:52:38;19.23;;;9.90;;
16407;SDS011;8313;49.894;8.084;2023-02-15T13:57:51;21.27;;;10.63;;
16407;SDS011;8313;49.894;8.084;2023-02-15T14:03:44;25.77;;;12.13;;
16407;SDS011;8313;49.894;8.084;2023-02-15T14:06:45;23.30;;;11.40;;
16407;SDS011;8313;49.894;8.084;2023-02-15T14:12:17;22.23;;;10.83;;
16407;SDS011;8313;49.894;8.084;2023-02-15T14:25:42;18.33;;;9.40;;
16407;SDS011;8313;49.894;8.084;2023-02-15T14:28:15;22.00;;;11.37;;
16407;SDS011;8313;49.894;8.084;2023-02-15T14:30:49;17.80;;;10.27;;
16407;SDS011;8313;49.894;8.084;2023-02-15T14:36:08;26.30;;;11.07;;
16407;SDS011;8313;49.894;8.084;2023-02-15T14:41:17;25.50;;;12.20;;
16407;SDS011;8313;49.894;8.084;2023-02-15T14:46:42;29.07;;;15.13;;
16407;SDS011;8313;49.894;8.084;2023-02-15T14:49:19;30.50;;;18.17;;
16407;SDS011;8313;49.894;8.084;2023-02-15T14:59:36;27.77;;;16.73;;
16407;SDS011;8313;49.894;8.084;2023-02-15T15:02:25;30.50;;;15.77;;
16407;SDS011;8313;49.894;8.084;2023-02-15T15:07:54;33.60;;;19.40;;
16407;SDS011;8313;49.894;8.084;2023-02-15T15:12:48;24.77;;;12.10;;
16407;SDS011;8313;49.894;8.084;2023-02-15T15:31:06;24.13;;;12.60;;
16407;SDS011;8313;49.894;8.084;2023-02-15T15:33:46;24.27;;;13.23;;
16407;SDS011;8313;49.894;8.084;2023-02-15T15:47:44;26.07;;;11.70;;
16407;SDS011;8313;49.894;8.084;2023-02-15T15:50:45;25.37;;;11.67;;
16407;SDS011;8313;49.894;8.084;2023-02-15T15:53:20;24.23;;;12.57;;
16407;SDS011;8313;49.894;8.084;2023-02-15T15:55:49;25.33;;;12.77;;
16407;SDS011;8313;49.894;8.084;2023-02-15T15:58:19;27.93;;;13.67;;
16407;SDS011;8313;49.894;8.084;2023-02-15T16:00:49;33.27;;;15.87;;
16407;SDS011;8313;49.894;8.084;2023-02-15T16:03:49;25.87;;;13.47;;
16407;SDS011;8313;49.894;8.084;2023-02-15T16:06:36;25.87;;;14.50;;
16407;SDS011;8313;49.894;8.084;2023-02-15T16:09:19;21.60;;;11.63;;
16407;SDS011;8313;49.894;8.084;2023-02-15T16:11:50;29.37;;;15.13;;
16407;SDS011;8313;49.894;8.084;2023-02-15T16:16:55;21.70;;;11.77;;
16407;SDS011;8313;49.894;8.084;2023-02-15T16:19:29;29.37;;;14.80;;
16407;SDS011;8313;49.894;8.084;2023-02-15T16:22:01;32.03;;;15.80;;
16407;SDS011;8313;49.894;8.084;2023-02-15T16:27:36;37.03;;;17.37;;
16407;SDS011;8313;49.894;8.084;2023-02-15T16:33:04;25.63;;;14.10;;
16407;SDS011;8313;49.894;8.084;2023-02-15T16:35:30;25.87;;;12.67;;
16407;SDS011;8313;49.894;8.084;2023-02-15T16:37:56;24.40;;;13.03;;
16407;SDS011;8313;49.894;8.084;2023-02-15T16:42:49;32.53;;;13.90;;
16407;SDS011;8313;49.894;8.084;2023-02-15T16:45:16;26.97;;;13.73;;
16407;SDS011;8313;49.894;8.084;2023-02-15T16:47:45;30.27;;;14.10;;
16407;SDS011;8313;49.894;8.084;2023-02-15T16:50:17;32.00;;;14.20;;
16407;SDS011;8313;49.894;8.084;2023-02-15T16:53:01;32.03;;;15.20;;
16407;SDS011;8313;49.894;8.084;2023-02-15T16:55:30;28.53;;;12.50;;
16407;SDS011;8313;49.894;8.084;2023-02-15T16:58:11;31.00;;;14.23;;
16407;SDS011;8313;49.894;8.084;2023-02-15T17:00:42;28.60;;;13.90;;
16407;SDS011;8313;49.894;8.084;2023-02-15T17:13:25;26.80;;;13.37;;
16407;SDS011;8313;49.894;8.084;2023-02-15T17:18:24;30.60;;;12.73;;
16407;SDS011;8313;49.894;8.084;2023-02-15T17:20:53;29.80;;;14.17;;
16407;SDS011;8313;49.894;8.084;2023-02-15T17:25:53;28.23;;;13.67;;
16407;SDS011;8313;49.894;8.084;2023-02-15T17:28:28;34.60;;;13.37;;
16407;SDS011;8313;49.894;8.084;2023-02-15T17:30:55;21.77;;;12.90;;
16407;SDS011;8313;49.894;8.084;2023-02-15T17:33:24;36.20;;;16.93;;
16407;SDS011;8313;49.894;8.084;2023-02-15T17:36:07;28.97;;;13.77;;
16407;SDS011;8313;49.894;8.084;2023-02-15T17:41:22;28.50;;;12.80;;
16407;SDS011;8313;49.894;8.084;2023-02-15T17:43:55;31.53;;;14.13;;
16407;SDS011;8313;49.894;8.084;2023-02-15T17:46:20;26.13;;;12.70;;
16407;SDS011;8313;49.894;8.084;2023-02-15T17:48:47;31.83;;;13.57;;
16407;SDS011;8313;49.894;8.084;2023-02-15T17:51:15;33.10;;;14.43;;
16407;SDS011;8313;49.894;8.084;2023-02-15T17:53:44;33.30;;;14.20;;
16407;SDS011;8313;49.894;8.084;2023-02-15T17:56:29;25.13;;;12.20;;
16407;SDS011;8313;49.894;8.084;2023-02-15T17:58:55;34.83;;;16.03;;
16407;SDS011;8313;49.894;8.084;2023-02-15T18:01:21;27.73;;;14.03;;
16407;SDS011;8313;49.894;8.084;2023-02-15T18:04:12;33.13;;;14.03;;
16407;SDS011;8313;49.894;8.084;2023-02-15T18:06:57;29.20;;;14.07;;
16407;SDS011;8313;49.894;8.084;2023-02-15T18:09:42;33.57;;;16.30;;
16407;SDS011;8313;49.894;8.084;2023-02-15T18:12:27;30.40;;;14.20;;
16407;SDS011;8313;49.894;8.084;2023-02-15T18:14:55;31.57;;;15.57;;
16407;SDS011;8313;49.894;8.084;2023-02-15T18:17:22;27.77;;;13.60;;
16407;SDS011;8313;49.894;8.084;2023-02-15T18:20:01;31.80;;;13.27;;
16407;SDS011;8313;49.894;8.084;2023-02-15T18:22:29;28.43;;;14.27;;
16407;SDS011;8313;49.894;8.084;2023-02-15T18:24:55;39.97;;;16.00;;
16407;SDS011;8313;49.894;8.084;2023-02-15T18:27:21;30.37;;;14.27;;
16407;SDS011;8313;49.894;8.084;2023-02-15T18:29:47;30.67;;;14.67;;
16407;SDS011;8313;49.894;8.084;2023-02-15T18:32:17;31.03;;;13.87;;
16407;SDS011;8313;49.894;8.084;2023-02-15T18:34:49;25.90;;;12.27;;
16407;SDS011;8313;49.894;8.084;2023-02-15T18:37:17;28.17;;;14.60;;
16407;SDS011;8313;49.894;8.084;2023-02-15T18:39:46;26.13;;;14.53;;
16407;SDS011;8313;49.894;8.084;2023-02-15T18:42:26;35.53;;;15.57;;
16407;SDS011;8313;49.894;8.084;2023-02-15T18:44:57;36.47;;;15.30;;
16407;SDS011;8313;49.894;8.084;2023-02-15T18:47:24;27.27;;;14.20;;
16407;SDS011;8313;49.894;8.084;2023-02-15T18:49:51;27.70;;;14.30;;